OTBD

Doha International Airport

Airport
ICAO code
OTBD
IATA Code
DOH
Summary
ICAO Region
MID
ICAO Territory
Location

Doha, Qatar

Serving
Doha
Elevation
35 ft
Coordinates
25° 15' 40" N , 51° 33' 54" E
KCC
BWh
Metar
Observation
OTBD 170700Z AUTO 18009KT 160V220 CAVOK 40/19 Q0998 NOSIG
Station
Doha International Airport
Date/Time
2022-08-17 07:00:00
Wind direction
180°
Wind speed
09 kts
Lowest cloud amount
clouds and visibility OK
Temperature
40°C
Dew point
19°C
Humidity
29%
QNH
998 hPa
Weather condition
n/a

Doha International Airport is an airport in Doha, Qatar. It was Qatar's commercial international airport until Hamad International Airport opened on 30 April 2014. While all scheduled commercial traffic ceased, the airport site and existing runway is still used.

Climatology

Hot Desert Climate (Köppen climate classification BWh)

Runways

Designator Length Width Surface Rops
15/33 4572 46 ASP Yes/Yes

Airport map

Aerial View

SKYbrary Partners:

Safety knowledge contributed by: